createdAt,value
2019-03-23T00:00:08.852Z,102013.63
2019-03-23T00:02:38.480Z,102015.83
2019-03-23T00:05:09.141Z,102015.31
2019-03-23T00:07:38.774Z,102017.96
2019-03-23T00:10:08.683Z,102008.64
2019-03-23T00:12:38.306Z,102007.31
2019-03-23T00:15:10.479Z,102003.30
2019-03-23T00:17:40.092Z,102004.98
2019-03-23T00:20:09.795Z,101999.04
2019-03-23T00:22:39.334Z,101992.25
2019-03-23T00:25:08.955Z,101993.05
2019-03-23T00:27:38.579Z,101987.66
2019-03-23T00:30:09.244Z,101988.86
2019-03-23T00:32:38.861Z,101990.10
2019-03-23T00:35:08.972Z,101984.63
2019-03-23T00:37:38.592Z,101983.62
2019-03-23T00:40:08.574Z,101978.67
2019-03-23T00:42:38.172Z,101977.30
2019-03-23T00:45:08.670Z,101973.70
2019-03-23T00:47:38.191Z,101968.36
2019-03-23T00:50:08.612Z,101963.05
2019-03-23T00:52:38.214Z,101960.36
2019-03-23T00:55:08.465Z,101962.97
2019-03-23T00:57:38.085Z,101958.91
2019-03-23T01:00:09.233Z,101954.38
2019-03-23T01:02:38.842Z,101949.48
2019-03-23T01:05:08.949Z,101954.69
2019-03-23T01:07:38.555Z,101949.38
2019-03-23T01:10:09.248Z,101948.07
2019-03-23T01:12:38.844Z,101952.13
2019-03-23T01:15:08.558Z,101939.81
2019-03-23T01:17:38.084Z,101938.50
2019-03-23T01:20:09.331Z,101937.17
2019-03-23T01:22:38.941Z,101932.88
2019-03-23T01:25:09.959Z,101927.58
2019-03-23T01:27:39.564Z,101927.14
2019-03-23T01:30:10.503Z,101925.26
2019-03-23T01:32:40.113Z,101920.80
2019-03-23T01:35:09.739Z,101919.78
2019-03-23T01:37:39.188Z,101923.23
2019-03-23T01:40:09.088Z,101917.92
2019-03-23T01:42:38.683Z,101915.28
2019-03-23T01:45:08.933Z,101909.81
2019-03-23T01:47:38.527Z,101907.39
2019-03-23T01:50:08.299Z,101901.97
2019-03-23T01:52:37.925Z,101901.08
2019-03-23T01:55:08.264Z,101900.59
2019-03-23T01:57:37.789Z,101905.01
2019-03-23T02:00:08.011Z,101903.59
2019-03-23T02:02:37.832Z,101897.73
2019-03-23T02:05:08.276Z,101893.17
2019-03-23T02:07:37.867Z,101892.20
2019-03-23T02:10:07.955Z,101889.47
2019-03-23T02:12:37.564Z,101897.84
2019-03-23T02:15:07.494Z,101905.82
2019-03-23T02:17:37.095Z,101903.49
2019-03-23T02:20:08.274Z,101902.42
2019-03-23T02:22:37.910Z,101893.06
2019-03-23T02:25:07.921Z,101894.30
2019-03-23T02:27:37.516Z,101899.88
2019-03-23T02:30:08.545Z,101890.48
2019-03-23T02:32:38.072Z,101893.95
2019-03-23T02:35:08.412Z,101884.47
2019-03-23T02:37:37.953Z,101889.66
2019-03-23T02:40:08.129Z,101883.34
2019-03-23T02:42:37.751Z,101881.34
2019-03-23T02:45:08.223Z,101877.22
2019-03-23T02:47:37.828Z,101881.88
2019-03-23T02:50:08.201Z,101884.91
2019-03-23T02:52:37.988Z,101882.75
2019-03-23T02:55:08.761Z,101887.20
2019-03-23T02:57:38.379Z,101885.09
2019-03-23T03:00:08.626Z,101888.17
2019-03-23T03:02:38.265Z,101892.14
2019-03-23T03:05:09.559Z,101892.64
2019-03-23T03:07:42.327Z,101891.31
2019-03-23T03:10:11.130Z,101883.39
2019-03-23T03:12:40.716Z,101883.82
2019-03-23T03:15:10.371Z,101878.48
2019-03-23T03:17:39.890Z,101887.59
2019-03-23T03:20:10.398Z,101884.76
2019-03-23T03:22:39.940Z,101888.72
2019-03-23T03:25:10.075Z,101889.10
2019-03-23T03:27:39.591Z,101886.80
2019-03-23T03:30:10.230Z,101888.13
2019-03-23T03:32:39.819Z,101893.80
2019-03-23T03:35:09.959Z,101892.27
2019-03-23T03:37:39.541Z,101899.26
2019-03-23T03:40:09.184Z,101895.63
2019-03-23T03:42:38.757Z,101899.11
2019-03-23T03:45:09.287Z,101895.53
2019-03-23T03:47:41.264Z,101897.23
2019-03-23T03:50:10.376Z,101894.97
2019-03-23T03:52:39.891Z,101894.48
2019-03-23T03:55:09.519Z,101894.44
2019-03-23T03:57:39.139Z,101893.50
2019-03-23T04:00:09.220Z,101887.72
2019-03-23T04:02:38.825Z,101879.16
2019-03-23T04:05:08.428Z,101881.34
2019-03-23T04:07:38.038Z,101876.34
2019-03-23T04:10:08.408Z,101876.19
2019-03-23T04:12:37.880Z,101880.86
2019-03-23T04:15:07.617Z,101890.83
2019-03-23T04:17:37.230Z,101886.30
2019-03-23T04:20:07.392Z,101885.71
2019-03-23T04:22:37.414Z,101885.98
2019-03-23T04:25:07.350Z,101888.89
2019-03-23T04:27:36.973Z,101886.58
2019-03-23T04:30:06.799Z,101886.40
2019-03-23T04:32:36.458Z,101886.72
2019-03-23T04:35:07.252Z,101878.59
2019-03-23T04:37:36.873Z,101877.64
2019-03-23T04:40:07.370Z,101878.42
2019-03-23T04:42:36.913Z,101880.00
2019-03-23T04:45:08.694Z,101883.45
2019-03-23T04:47:38.242Z,101885.14
2019-03-23T04:50:08.616Z,101889.88
2019-03-23T04:52:38.232Z,101883.23
2019-03-23T04:55:10.025Z,101884.03
2019-03-23T04:57:40.556Z,101875.55
2019-03-23T05:00:12.081Z,101880.64
2019-03-23T05:02:41.675Z,101877.81
2019-03-23T05:05:11.275Z,101870.16
2019-03-23T05:07:40.879Z,101870.86
2019-03-23T05:10:11.551Z,101871.05
2019-03-23T05:12:41.166Z,101872.97
2019-03-23T05:15:10.983Z,101874.55
2019-03-23T05:17:40.603Z,101876.11
2019-03-23T05:20:10.505Z,101879.98
2019-03-23T05:22:40.037Z,101882.50
2019-03-23T05:25:16.266Z,101877.54
2019-03-23T05:27:45.739Z,101879.22
2019-03-23T05:30:15.334Z,101885.69
2019-03-23T05:32:44.954Z,101890.47
2019-03-23T05:35:14.538Z,101889.95
2019-03-23T05:37:44.072Z,101892.98
2019-03-23T05:40:13.666Z,101894.23
2019-03-23T05:42:43.284Z,101888.52
2019-03-23T05:45:12.868Z,101893.23
2019-03-23T05:47:42.478Z,101900.67
2019-03-23T05:50:12.069Z,101906.70
2019-03-23T05:52:41.679Z,101900.55
2019-03-23T05:55:11.499Z,101895.71
2019-03-23T05:57:41.170Z,101900.48
2019-03-23T06:00:13.966Z,101901.37
2019-03-23T06:02:43.588Z,101901.37
2019-03-23T06:05:13.174Z,101900.55
2019-03-23T06:07:42.785Z,101911.52
2019-03-23T06:10:12.503Z,101917.73
2019-03-23T06:12:42.119Z,101916.48
2019-03-23T06:15:11.723Z,101906.46
2019-03-23T06:17:41.254Z,101912.28
2019-03-23T06:20:11.184Z,101920.31
2019-03-23T06:22:40.804Z,101916.11
2019-03-23T06:25:10.401Z,101913.17
2019-03-23T06:27:39.940Z,101915.00
2019-03-23T06:30:10.035Z,101910.28
2019-03-23T06:32:39.648Z,101909.11
2019-03-23T06:35:09.594Z,101920.27
2019-03-23T06:37:39.219Z,101911.62
2019-03-23T06:40:09.949Z,101911.80
2019-03-23T06:42:39.666Z,101913.31
2019-03-23T06:45:10.021Z,101914.05
2019-03-23T06:47:39.653Z,101916.50
2019-03-23T06:50:09.879Z,101916.25
2019-03-23T06:52:39.515Z,101918.32
2019-03-23T06:55:09.448Z,101924.22
2019-03-23T06:57:39.086Z,101925.34
2019-03-23T07:00:10.697Z,101920.69
2019-03-23T07:02:40.310Z,101922.28
2019-03-23T07:05:10.400Z,101929.23
2019-03-23T07:07:40.036Z,101925.63
2019-03-23T07:10:10.320Z,101928.65
2019-03-23T07:12:39.950Z,101933.00
2019-03-23T07:15:19.399Z,101939.11
2019-03-23T07:17:41.523Z,101943.45
2019-03-23T07:20:12.165Z,101944.70
2019-03-23T07:22:41.791Z,101942.88
2019-03-23T07:25:11.952Z,101943.24
2019-03-23T07:27:41.590Z,101942.28
2019-03-23T07:30:13.221Z,101945.37
2019-03-23T07:32:42.926Z,101947.09
2019-03-23T07:35:12.844Z,101943.41
2019-03-23T07:37:42.469Z,101944.00
2019-03-23T07:40:12.282Z,101942.37
2019-03-23T07:42:41.915Z,101949.13
2019-03-23T07:45:11.841Z,101939.97
2019-03-23T07:47:41.467Z,101938.83
2019-03-23T07:50:11.483Z,101943.86
2019-03-23T07:52:41.102Z,101942.77
2019-03-23T07:55:15.044Z,101949.17
2019-03-23T07:57:44.718Z,101953.80
2019-03-23T08:00:16.867Z,101956.84
2019-03-23T08:02:46.476Z,101957.62
2019-03-23T08:05:16.099Z,101958.39
2019-03-23T08:07:45.724Z,101950.81
2019-03-23T08:10:31.988Z,101950.29
2019-03-23T08:13:01.705Z,101944.41
2019-03-23T08:15:31.389Z,101953.11
2019-03-23T08:18:00.991Z,101950.72
2019-03-23T08:20:30.612Z,101950.97
2019-03-23T08:23:00.225Z,101946.76
2019-03-23T08:25:29.850Z,101948.33
2019-03-23T08:27:59.375Z,101948.56
2019-03-23T08:30:28.985Z,101957.26
2019-03-23T08:32:58.468Z,101951.31
2019-03-23T08:35:28.172Z,101949.00
2019-03-23T08:38:05.609Z,101952.87
2019-03-23T08:40:52.300Z,101958.41
2019-03-23T08:43:22.046Z,101948.02
2019-03-23T08:45:54.466Z,101947.36
2019-03-23T08:48:24.098Z,101948.43
2019-03-23T08:51:03.096Z,101951.77
2019-03-23T08:53:42.294Z,101953.75
2019-03-23T08:56:15.730Z,101962.86
2019-03-23T08:58:43.197Z,101956.84
2019-03-23T09:01:13.016Z,101963.70
2019-03-23T09:03:52.004Z,101974.98
2019-03-23T09:06:17.233Z,101980.00
2019-03-23T09:08:50.954Z,101972.14
2019-03-23T09:12:11.524Z,101978.49
2019-03-23T09:15:08.406Z,101982.59
2019-03-23T09:17:52.165Z,101986.70
2019-03-23T09:20:52.656Z,101989.05
2019-03-23T09:24:03.593Z,101985.56
2019-03-23T09:27:08.132Z,101995.44
2019-03-23T09:29:51.549Z,101991.52
2019-03-23T09:32:27.895Z,101996.49
2019-03-23T09:35:05.553Z,101997.90
2019-03-23T09:37:52.328Z,102001.95
2019-03-23T09:40:25.388Z,102009.58
2019-03-23T09:43:11.002Z,102009.65
2019-03-23T09:45:36.374Z,102014.56
2019-03-23T09:48:05.977Z,102020.84
2019-03-23T09:50:35.600Z,102012.42
2019-03-23T09:53:05.228Z,102023.13
2019-03-23T09:55:34.769Z,102023.61
2019-03-23T09:58:04.398Z,102017.85
2019-03-23T10:00:33.949Z,102018.77
2019-03-23T10:03:03.565Z,102020.57
2019-03-23T10:05:33.193Z,102020.15
2019-03-23T10:08:02.797Z,102021.48
2019-03-23T10:10:32.346Z,102027.70
2019-03-23T10:13:01.953Z,102028.13
2019-03-23T10:15:31.594Z,102029.86
2019-03-23T10:18:01.723Z,102032.08
2019-03-23T10:20:31.532Z,102042.30
2019-03-23T10:23:01.135Z,102041.84
2019-03-23T10:25:30.677Z,102039.09
2019-03-23T10:28:00.276Z,102043.94
2019-03-23T10:30:29.902Z,102043.91
2019-03-23T10:32:59.511Z,102049.68
2019-03-23T10:35:29.132Z,102051.42
2019-03-23T10:37:58.683Z,102056.73
2019-03-23T10:40:32.698Z,102059.80
2019-03-23T10:42:59.635Z,102048.91
2019-03-23T10:45:29.261Z,102056.08
2019-03-23T10:47:58.720Z,102050.64
2019-03-23T10:50:28.383Z,102060.89
2019-03-23T10:52:58.000Z,102059.54
2019-03-23T10:55:27.529Z,102064.90
2019-03-23T10:57:57.174Z,102059.52
2019-03-23T11:00:26.705Z,102057.79
2019-03-23T11:02:56.256Z,102061.36
2019-03-23T11:05:25.867Z,102064.91
2019-03-23T11:07:55.412Z,102069.86
2019-03-23T11:10:25.019Z,102075.23
2019-03-23T11:12:54.668Z,102071.58
2019-03-23T11:15:24.275Z,102079.16
2019-03-23T11:17:53.832Z,102087.68
2019-03-23T11:20:23.441Z,102085.97
2019-03-23T11:22:53.069Z,102088.22
2019-03-23T11:25:22.692Z,102094.97
2019-03-23T11:27:52.233Z,102098.53
2019-03-23T11:30:21.840Z,102103.90
2019-03-23T11:32:51.466Z,102110.61
2019-03-23T11:35:21.243Z,102113.70
2019-03-23T11:37:51.130Z,102112.36
2019-03-23T11:40:20.859Z,102104.80
2019-03-23T11:42:50.617Z,102115.52
2019-03-23T11:45:20.229Z,102105.72
2019-03-23T11:47:49.877Z,102107.49
2019-03-23T11:50:19.541Z,102121.80
2019-03-23T11:52:49.080Z,102126.72
2019-03-23T11:55:18.695Z,102133.47
2019-03-23T11:57:48.266Z,102128.13
2019-03-23T12:00:17.965Z,102131.30
2019-03-23T12:02:47.594Z,102134.91
2019-03-23T12:05:17.205Z,102130.89
2019-03-23T12:07:46.832Z,102139.41
2019-03-23T12:10:16.445Z,102140.34
2019-03-23T12:12:46.184Z,102139.82
2019-03-23T12:15:15.994Z,102135.36
2019-03-23T12:17:45.548Z,102138.05
2019-03-23T12:20:15.249Z,102134.93
2019-03-23T12:22:44.882Z,102142.58
2019-03-23T12:25:15.009Z,102145.30
2019-03-23T12:27:44.653Z,102157.36
2019-03-23T12:30:15.958Z,102152.88
2019-03-23T12:32:45.733Z,102156.02
2019-03-23T12:35:15.350Z,102155.09
2019-03-23T12:37:44.970Z,102158.66
2019-03-23T12:40:15.796Z,102171.17
2019-03-23T12:42:45.449Z,102176.08
2019-03-23T12:45:15.141Z,102176.49
2019-03-23T12:47:44.741Z,102177.36
2019-03-23T12:50:15.166Z,102178.75
2019-03-23T12:52:44.770Z,102177.00
2019-03-23T12:55:14.388Z,102185.01
2019-03-23T12:57:44.017Z,102182.78
2019-03-23T13:00:14.242Z,102178.76
2019-03-23T13:02:44.045Z,102180.52
2019-03-23T13:05:13.975Z,102187.26
2019-03-23T13:07:43.506Z,102185.92
2019-03-23T13:10:13.485Z,102183.70
2019-03-23T13:12:43.084Z,102183.30
2019-03-23T13:15:13.125Z,102185.98
2019-03-23T13:17:42.744Z,102184.22
2019-03-23T13:20:12.502Z,102190.50
2019-03-23T13:22:42.169Z,102194.98
2019-03-23T13:25:11.898Z,102187.85
2019-03-23T13:27:42.304Z,102189.62
2019-03-23T13:30:12.417Z,102182.92
2019-03-23T13:32:42.018Z,102182.00
2019-03-23T13:35:11.750Z,102190.08
2019-03-23T13:37:41.302Z,102185.17
2019-03-23T13:40:11.293Z,102193.22
2019-03-23T13:42:40.892Z,102193.64
2019-03-23T13:45:10.928Z,102187.82
2019-03-23T13:47:40.557Z,102183.83
2019-03-23T13:50:10.929Z,102186.53
2019-03-23T13:52:40.533Z,102184.25
2019-03-23T13:55:14.985Z,102182.06
2019-03-23T13:57:44.607Z,102183.38
2019-03-23T14:00:14.363Z,102189.16
2019-03-23T14:02:43.966Z,102188.70
2019-03-23T14:05:16.336Z,102183.34
2019-03-23T14:07:44.913Z,102181.08
2019-03-23T14:10:14.542Z,102185.14
2019-03-23T14:12:44.082Z,102182.46
2019-03-23T14:15:13.698Z,102181.55
2019-03-23T14:17:43.304Z,102183.30
2019-03-23T14:20:12.925Z,102185.10
2019-03-23T14:22:42.449Z,102181.97
2019-03-23T14:25:12.068Z,102180.62
2019-03-23T14:27:41.598Z,102182.33
2019-03-23T14:30:11.454Z,102182.30
2019-03-23T14:32:41.022Z,102181.78
2019-03-23T14:35:10.598Z,102178.14
2019-03-23T14:37:40.197Z,102178.58
2019-03-23T14:40:09.954Z,102177.22
2019-03-23T14:42:39.551Z,102176.27
2019-03-23T14:45:09.292Z,102171.72
2019-03-23T14:47:38.888Z,102175.27
2019-03-23T14:50:08.904Z,102179.71
2019-03-23T14:52:38.498Z,102173.00
2019-03-23T14:55:08.863Z,102177.48
2019-03-23T14:57:40.466Z,102177.03
2019-03-23T15:00:10.633Z,102183.71
2019-03-23T15:02:40.193Z,102182.87
2019-03-23T15:05:09.996Z,102186.50
2019-03-23T15:07:39.618Z,102182.55
2019-03-23T15:10:09.827Z,102190.17
2019-03-23T15:12:39.450Z,102186.59
2019-03-23T15:15:09.072Z,102187.48
2019-03-23T15:17:48.246Z,102191.97
2019-03-23T15:20:10.038Z,102188.42
2019-03-23T15:22:39.697Z,102187.61
2019-03-23T15:25:09.369Z,102187.26
2019-03-23T15:27:38.921Z,102196.66
2019-03-23T15:30:08.763Z,102193.56
2019-03-23T15:32:38.426Z,102194.06
2019-03-23T15:35:08.285Z,102194.06
2019-03-23T15:37:37.834Z,102190.98
2019-03-23T15:40:08.142Z,102192.30
2019-03-23T15:42:37.860Z,102186.48
2019-03-23T15:45:08.288Z,102193.20
2019-03-23T15:47:37.918Z,102195.41
2019-03-23T15:50:08.633Z,102199.00
2019-03-23T15:52:38.186Z,102198.09
2019-03-23T15:55:08.023Z,102194.97
2019-03-23T15:57:37.884Z,102196.73
2019-03-23T16:00:09.798Z,102189.13
2019-03-23T16:02:39.347Z,102189.54
2019-03-23T16:05:09.049Z,102190.88
2019-03-23T16:07:38.673Z,102196.22
2019-03-23T16:10:09.080Z,102181.05
2019-03-23T16:12:38.817Z,102188.19
2019-03-23T16:15:10.678Z,102188.17
2019-03-23T16:17:40.302Z,102195.27
2019-03-23T16:20:10.941Z,102190.34
2019-03-23T16:22:40.564Z,102190.70
2019-03-23T16:25:11.074Z,102189.76
2019-03-23T16:27:40.701Z,102195.95
2019-03-23T16:30:12.167Z,102192.78
2019-03-23T16:32:41.809Z,102189.66
2019-03-23T16:35:11.640Z,102200.71
2019-03-23T16:37:41.262Z,102191.73
2019-03-23T16:40:11.773Z,102196.11
2019-03-23T16:42:45.630Z,102203.14
2019-03-23T16:45:12.947Z,102198.63
2019-03-23T16:47:42.569Z,102200.77
2019-03-23T16:50:12.375Z,102203.32
2019-03-23T16:52:42.028Z,102199.27
2019-03-23T16:55:12.477Z,102205.38
2019-03-23T16:57:42.119Z,102203.13
2019-03-23T17:00:12.161Z,102198.18
2019-03-23T17:02:41.783Z,102202.10
2019-03-23T17:05:11.727Z,102198.91
2019-03-23T17:07:41.350Z,102206.37
2019-03-23T17:10:10.964Z,102215.64
2019-03-23T17:12:40.520Z,102208.03
2019-03-23T17:15:10.410Z,102204.86
2019-03-23T17:17:40.050Z,102207.44
2019-03-23T17:20:10.087Z,102213.20
2019-03-23T17:22:39.712Z,102214.02
2019-03-23T17:25:09.423Z,102217.47
2019-03-23T17:27:38.976Z,102219.14
2019-03-23T17:30:09.529Z,102226.16
2019-03-23T17:32:39.239Z,102229.63
2019-03-23T17:35:08.889Z,102234.86
2019-03-23T17:37:38.418Z,102234.73
2019-03-23T17:40:08.734Z,102239.13
2019-03-23T17:42:38.348Z,102235.01
2019-03-23T17:45:08.560Z,102233.98
2019-03-23T17:47:38.092Z,102238.81
2019-03-23T17:50:09.448Z,102239.65
2019-03-23T17:52:39.046Z,102243.97
2019-03-23T17:55:08.795Z,102244.33
2019-03-23T17:57:38.420Z,102242.91
2019-03-23T18:00:09.295Z,102245.49
2019-03-23T18:02:38.939Z,102241.89
2019-03-23T18:05:08.993Z,102241.86
2019-03-23T18:07:38.597Z,102242.74
2019-03-23T18:10:08.546Z,102247.63
2019-03-23T18:12:38.213Z,102247.59
2019-03-23T18:15:09.032Z,102248.03
2019-03-23T18:17:38.633Z,102248.01
2019-03-23T18:20:08.874Z,102248.42
2019-03-23T18:22:38.481Z,102252.41
2019-03-23T18:25:08.813Z,102256.87
2019-03-23T18:27:38.405Z,102255.14
2019-03-23T18:30:17.295Z,102252.98
2019-03-23T18:32:46.896Z,102252.17
2019-03-23T18:35:16.526Z,102259.24
2019-03-23T18:37:46.132Z,102266.78
2019-03-23T18:40:16.648Z,102275.62
2019-03-23T18:42:46.237Z,102277.84
2019-03-23T18:45:15.858Z,102277.41
2019-03-23T18:47:45.473Z,102282.25
2019-03-23T18:50:15.093Z,102282.22
2019-03-23T18:52:44.705Z,102279.97
2019-03-23T18:55:14.332Z,102278.17
2019-03-23T18:57:43.970Z,102277.73
2019-03-23T19:00:17.003Z,102279.44
2019-03-23T19:02:46.611Z,102286.03
2019-03-23T19:05:16.239Z,102283.25
2019-03-23T19:07:45.842Z,102290.28
2019-03-23T19:10:15.571Z,102288.51
2019-03-23T19:12:45.196Z,102285.75
2019-03-23T19:15:14.937Z,102294.17
2019-03-23T19:17:44.581Z,102293.70
2019-03-23T19:20:14.275Z,102287.91
2019-03-23T19:22:43.886Z,102293.60
2019-03-23T19:25:18.128Z,102293.57
2019-03-23T19:27:44.893Z,102287.77
2019-03-23T19:30:14.936Z,102291.73
2019-03-23T19:32:44.540Z,102290.34
2019-03-23T19:35:14.185Z,102289.89
2019-03-23T19:37:43.790Z,102290.72
2019-03-23T19:40:13.632Z,102287.58
2019-03-23T19:42:43.236Z,102287.92
2019-03-23T19:45:12.861Z,102287.41
2019-03-23T19:47:42.466Z,102291.77
2019-03-23T19:50:12.405Z,102291.70
2019-03-23T19:52:42.007Z,102291.70
2019-03-23T19:55:11.693Z,102295.25
2019-03-23T19:57:41.260Z,102301.86
2019-03-23T20:00:11.731Z,102294.73
2019-03-23T20:02:41.333Z,102301.83
2019-03-23T20:05:10.966Z,102303.56
2019-03-23T20:07:40.562Z,102305.34
2019-03-23T20:10:10.507Z,102305.81
2019-03-23T20:12:40.101Z,102307.14
2019-03-23T20:15:10.467Z,102304.92
2019-03-23T20:17:40.166Z,102312.91
2019-03-23T20:20:10.411Z,102320.84
2019-03-23T20:22:40.034Z,102306.22
2019-03-23T20:25:09.924Z,102314.57
2019-03-23T20:27:39.471Z,102314.09
2019-03-23T20:30:10.145Z,102322.47
2019-03-23T20:32:39.761Z,102320.19
2019-03-23T20:35:10.492Z,102317.94
2019-03-23T20:37:40.101Z,102313.50
2019-03-23T20:40:10.335Z,102315.69
2019-03-23T20:42:39.938Z,102316.49
2019-03-23T20:45:11.107Z,102313.77
2019-03-23T20:47:41.687Z,102311.88
2019-03-23T20:50:11.889Z,102316.79
2019-03-23T20:52:41.830Z,102307.89
2019-03-23T20:55:24.229Z,102317.20
2019-03-23T20:57:54.363Z,102310.52
2019-03-23T21:00:23.961Z,102321.55
2019-03-23T21:02:53.602Z,102325.05
2019-03-23T21:05:33.089Z,102323.21
2019-03-23T21:07:54.574Z,102329.45
2019-03-23T21:10:24.104Z,102330.73
2019-03-23T21:12:53.745Z,102339.56
2019-03-23T21:15:23.351Z,102333.77
2019-03-23T21:17:52.978Z,102338.59
2019-03-23T21:20:22.583Z,102330.98
2019-03-23T21:22:52.142Z,102328.21
2019-03-23T21:25:21.670Z,102333.45
2019-03-23T21:27:51.296Z,102326.32
2019-03-23T21:30:21.697Z,102329.38
2019-03-23T21:32:51.312Z,102332.00
2019-03-23T21:35:20.909Z,102328.37
2019-03-23T21:37:50.531Z,102324.43
2019-03-23T21:40:20.123Z,102331.03
2019-03-23T21:42:49.737Z,102326.16
2019-03-23T21:45:19.332Z,102331.07
2019-03-23T21:47:48.957Z,102327.94
2019-03-23T21:50:18.566Z,102328.75
2019-03-23T21:52:48.393Z,102328.30
2019-03-23T21:55:17.995Z,102329.98
2019-03-23T21:57:47.636Z,102326.73
2019-03-23T22:00:30.487Z,102319.48
2019-03-23T22:03:00.129Z,102319.41
2019-03-23T22:05:29.706Z,102314.94
2019-03-23T22:07:59.541Z,102310.03
2019-03-23T22:10:29.132Z,102313.48
2019-03-23T22:12:58.674Z,102318.75
2019-03-23T22:15:31.604Z,102308.50
2019-03-23T22:18:01.228Z,102306.23
2019-03-23T22:20:30.756Z,102306.59
2019-03-23T22:23:00.565Z,102311.82
2019-03-23T22:25:30.155Z,102308.99
2019-03-23T22:27:59.772Z,102306.16
2019-03-23T22:30:29.367Z,102307.41
2019-03-23T22:32:58.982Z,102297.50
2019-03-23T22:35:28.505Z,102300.07
2019-03-23T22:37:58.132Z,102303.08
2019-03-23T22:40:28.292Z,102305.19
2019-03-23T22:42:58.036Z,102305.95
2019-03-23T22:45:27.621Z,102313.77
2019-03-23T22:47:57.231Z,102312.70
2019-03-23T22:50:26.825Z,102309.86
2019-03-23T22:52:56.450Z,102304.81
2019-03-23T22:55:26.037Z,102306.44
2019-03-23T22:57:55.782Z,102308.59
2019-03-23T23:00:33.184Z,102306.73
2019-03-23T23:03:03.241Z,102301.34
2019-03-23T23:05:32.826Z,102295.89
2019-03-23T23:08:02.445Z,102297.96
2019-03-23T23:10:32.025Z,102300.06
2019-03-23T23:13:01.635Z,102301.30
2019-03-23T23:15:31.229Z,102309.11
2019-03-23T23:18:00.777Z,102300.13
2019-03-23T23:20:30.361Z,102292.11
2019-03-23T23:22:59.978Z,102297.31
2019-03-23T23:25:29.575Z,102299.48
2019-03-23T23:27:59.176Z,102294.95
2019-03-23T23:30:28.692Z,102293.14
2019-03-23T23:32:58.234Z,102290.88
2019-03-23T23:35:28.127Z,102287.30
2019-03-23T23:37:57.662Z,102287.69
2019-03-23T23:40:27.262Z,102285.77
2019-03-23T23:42:56.883Z,102282.19
2019-03-23T23:45:26.479Z,102280.31
2019-03-23T23:47:56.094Z,102281.54
2019-03-23T23:50:25.619Z,102282.77
2019-03-23T23:52:55.234Z,102284.83
2019-03-23T23:55:24.829Z,102285.11
2019-03-23T23:57:54.459Z,102291.98
